Time;durP1;ratioP1;P1;durP2;ratioP2;P2;SDS_P1;SDS_P2;PMS_P1;PMS_P2;Temp;Humidity;BMP_temperature;BMP_pressure;BME280_temperature;BME280_humidity;BME280_pressure;Samples;Min_cycle;Max_cycle;Signal;HPM_P1;HPM_P2
2022/04/07 00:01:09;;;;;;;1.88;0.98;;;10.80;99.90;;;;;;5013267;28;20061;-90
2022/04/07 00:03:35;;;;;;;1.38;1.20;;;10.70;99.90;;;;;;5014438;28;20034;-91
2022/04/07 00:06:01;;;;;;;1.30;0.90;;;10.70;99.90;;;;;;5012401;28;20478;-91
2022/04/07 00:08:28;;;;;;;1.33;1.00;;;10.70;99.90;;;;;;5013284;28;20021;-90
2022/04/07 00:10:53;;;;;;;1.60;1.20;;;10.70;99.90;;;;;;5013277;28;20044;-90
2022/04/07 00:13:19;;;;;;;1.75;1.02;;;10.80;99.90;;;;;;5013006;28;20022;-90
2022/04/07 00:15:45;;;;;;;1.48;0.95;;;10.70;99.90;;;;;;5013173;28;20026;-90
2022/04/07 00:18:11;;;;;;;1.40;0.90;;;10.70;99.90;;;;;;5013165;28;20030;-90
2022/04/07 00:20:37;;;;;;;1.33;0.88;;;10.70;99.90;;;;;;5012810;28;20133;-89
2022/04/07 00:23:03;;;;;;;1.60;1.13;;;10.70;99.90;;;;;;5012982;28;20033;-90
2022/04/07 00:25:30;;;;;;;0.75;0.75;;;10.70;99.90;;;;;;5012921;28;20026;-90
2022/04/07 00:27:55;;;;;;;1.15;0.80;;;10.70;99.90;;;;;;5012613;28;20101;-90
2022/04/07 00:30:21;;;;;;;1.20;0.80;;;10.70;99.90;;;;;;5012863;28;20176;-91
2022/04/07 00:32:48;;;;;;;1.65;1.02;;;10.70;99.90;;;;;;5012955;28;20033;-90
2022/04/07 00:35:15;;;;;;;1.25;0.90;;;10.70;99.90;;;;;;5012763;28;20030;-90
2022/04/07 00:37:41;;;;;;;1.88;1.02;;;10.60;99.90;;;;;;5014027;28;20030;-90
2022/04/07 00:40:08;;;;;;;1.63;0.82;;;10.70;99.90;;;;;;5012794;28;20029;-90
2022/04/07 00:42:42;;;;;;;1.70;0.75;;;10.70;99.90;;;;;;5013848;28;20576;-90
2022/04/07 00:45:08;;;;;;;2.55;1.40;;;10.70;99.90;;;;;;5012744;28;20036;-90
2022/04/07 00:47:34;;;;;;;1.30;0.90;;;10.70;99.90;;;;;;5012788;28;20034;-91
2022/04/07 00:50:02;;;;;;;3.28;0.60;;;10.70;99.90;;;;;;5012813;28;20611;-91
2022/04/07 00:52:30;;;;;;;1.20;0.70;;;10.70;99.90;;;;;;5012846;28;20447;-90
2022/04/07 00:54:56;;;;;;;1.73;0.60;;;10.70;99.90;;;;;;5013091;28;20117;-91
2022/04/07 00:57:23;;;;;;;1.77;0.80;;;10.60;99.90;;;;;;5012809;28;20057;-90
2022/04/07 00:59:49;;;;;;;1.77;0.70;;;10.60;99.90;;;;;;5012971;28;20033;-91
2022/04/07 01:02:15;;;;;;;1.23;0.80;;;10.60;99.90;;;;;;5012544;28;20030;-91
2022/04/07 01:04:41;;;;;;;1.55;0.70;;;10.60;99.90;;;;;;5012501;28;20037;-91
2022/04/07 01:07:07;;;;;;;1.10;0.70;;;10.60;99.90;;;;;;5012927;28;20022;-91
2022/04/07 01:09:34;;;;;;;0.75;0.70;;;10.50;99.90;;;;;;5012603;28;20026;-89
2022/04/07 01:11:59;;;;;;;1.77;0.80;;;10.60;99.90;;;;;;5012506;28;20080;-90
2022/04/07 01:14:25;;;;;;;1.05;0.70;;;10.60;99.90;;;;;;5012247;28;20034;-90
2022/04/07 01:16:51;;;;;;;1.63;0.70;;;10.60;99.90;;;;;;5013949;28;20036;-92
2022/04/07 01:19:17;;;;;;;1.05;0.70;;;10.60;99.90;;;;;;5016340;28;20033;-90
2022/04/07 01:21:43;;;;;;;0.80;0.70;;;10.60;99.90;;;;;;5016208;28;20385;-89
2022/04/07 01:24:10;;;;;;;2.28;0.82;;;10.60;99.90;;;;;;5016164;28;20068;-89
2022/04/07 01:26:44;;;;;;;1.13;0.73;;;10.50;99.90;;;;;;5016090;28;20049;-90
2022/04/07 01:29:15;;;;;;;1.17;0.82;;;10.50;99.90;;;;;;5016053;28;20386;-90
2022/04/07 01:31:42;;;;;;;1.15;0.70;;;10.50;99.90;;;;;;5015935;28;20460;-90
2022/04/07 01:34:11;;;;;;;0.90;0.63;;;10.50;99.90;;;;;;5015866;28;20026;-90
2022/04/07 01:36:40;;;;;;;1.02;0.85;;;10.50;99.90;;;;;;5015836;28;20026;-89
2022/04/07 01:39:09;;;;;;;1.67;0.60;;;10.50;99.90;;;;;;5015826;28;20022;-90
2022/04/07 01:41:40;;;;;;;1.38;0.70;;;10.60;99.90;;;;;;5015581;28;20029;-87
2022/04/07 01:44:08;;;;;;;0.80;0.70;;;10.50;99.90;;;;;;5015541;28;20026;-90
2022/04/07 01:46:34;;;;;;;1.05;0.68;;;10.50;99.90;;;;;;5016772;28;20476;-89
2022/04/07 01:49:01;;;;;;;1.45;0.70;;;10.50;99.90;;;;;;5015433;28;20049;-90
2022/04/07 01:51:28;;;;;;;0.63;0.55;;;10.50;99.90;;;;;;5016606;28;20164;-90
2022/04/07 01:53:54;;;;;;;0.73;0.60;;;10.50;99.90;;;;;;5015598;28;20061;-89
2022/04/07 01:56:21;;;;;;;1.15;0.60;;;10.50;99.90;;;;;;5016468;28;20115;-90
2022/04/07 01:58:48;;;;;;;0.50;0.50;;;10.50;99.90;;;;;;5015575;28;20060;-90
2022/04/07 02:01:15;;;;;;;1.30;0.73;;;10.50;99.90;;;;;;5015495;28;20071;-90
2022/04/07 02:03:40;;;;;;;0.95;0.70;;;10.50;99.90;;;;;;5015168;28;20551;-87
2022/04/07 02:06:14;;;;;;;1.67;0.68;;;10.50;99.90;;;;;;5015274;28;20041;-89
2022/04/07 02:08:40;;;;;;;1.23;0.82;;;10.50;99.90;;;;;;5015349;28;20421;-89
2022/04/07 02:11:06;;;;;;;1.58;0.70;;;10.40;99.90;;;;;;5015040;28;20022;-89
2022/04/07 02:13:33;;;;;;;1.13;0.65;;;10.40;99.90;;;;;;5016265;28;20106;-90
2022/04/07 02:15:59;;;;;;;1.55;0.70;;;10.40;99.90;;;;;;5015763;28;20037;-90
2022/04/07 02:18:25;;;;;;;1.52;0.77;;;10.40;99.90;;;;;;5015011;28;20037;-88
2022/04/07 02:20:51;;;;;;;0.52;0.52;;;10.40;99.90;;;;;;5015981;28;20025;-88
2022/04/07 02:23:17;;;;;;;1.25;0.80;;;10.40;99.90;;;;;;5015962;28;20067;-90
2022/04/07 02:25:43;;;;;;;0.70;0.60;;;10.30;99.90;;;;;;5014565;28;20208;-89
2022/04/07 02:28:08;;;;;;;0.80;0.70;;;10.40;99.90;;;;;;5013668;28;20432;-89
2022/04/07 02:30:34;;;;;;;0.80;0.60;;;10.30;99.90;;;;;;5014587;28;20024;-89
2022/04/07 02:33:00;;;;;;;1.52;0.80;;;10.30;99.90;;;;;;5015220;28;20426;-90
2022/04/07 02:35:25;;;;;;;1.50;0.77;;;10.30;99.90;;;;;;5014515;28;20034;-89
2022/04/07 02:37:51;;;;;;;0.80;0.63;;;10.40;99.90;;;;;;5015576;28;20393;-86
2022/04/07 02:40:16;;;;;;;1.42;0.80;;;10.40;99.90;;;;;;5016026;28;20061;-85
2022/04/07 02:42:42;;;;;;;0.93;0.80;;;10.30;99.90;;;;;;5016078;28;20039;-89
2022/04/07 02:45:08;;;;;;;0.90;0.60;;;10.30;99.90;;;;;;5015512;28;20040;-89
2022/04/07 02:47:38;;;;;;;1.27;0.73;;;10.30;99.90;;;;;;5015485;28;20025;-85
2022/04/07 02:50:04;;;;;;;1.67;0.75;;;10.30;99.90;;;;;;5014003;28;20111;-88
2022/04/07 02:52:30;;;;;;;1.27;0.80;;;10.20;99.90;;;;;;5015017;28;20137;-88
2022/04/07 02:54:56;;;;;;;1.55;0.60;;;10.20;99.90;;;;;;5013974;28;20109;-90
2022/04/07 02:57:25;;;;;;;1.40;0.82;;;10.20;99.90;;;;;;5013970;28;20050;-89
2022/04/07 02:59:51;;;;;;;1.13;0.70;;;10.20;99.90;;;;;;5013850;28;20503;-89
2022/04/07 03:02:17;;;;;;;0.85;0.68;;;10.20;99.90;;;;;;5015339;28;20087;-87
2022/04/07 03:04:43;;;;;;;1.30;0.90;;;10.20;99.90;;;;;;5014059;28;20420;-89
2022/04/07 03:07:09;;;;;;;1.13;0.63;;;10.20;99.90;;;;;;5015032;28;20026;-88
2022/04/07 03:09:34;;;;;;;0.88;0.70;;;10.20;99.90;;;;;;5015282;28;20022;-88
2022/04/07 03:12:00;;;;;;;1.08;0.63;;;10.10;99.90;;;;;;5014221;28;20473;-82
2022/04/07 03:14:28;;;;;;;0.80;0.80;;;10.20;99.90;;;;;;5015143;28;20029;-85
2022/04/07 03:16:54;;;;;;;0.73;0.70;;;10.20;99.90;;;;;;5014824;28;20025;-88
2022/04/07 03:19:20;;;;;;;0.80;0.60;;;10.20;99.90;;;;;;5013577;28;20117;-85
2022/04/07 03:21:46;;;;;;;1.77;0.80;;;10.20;99.90;;;;;;5013566;28;20028;-90
2022/04/07 03:24:12;;;;;;;2.05;0.70;;;10.20;99.90;;;;;;5013494;28;20420;-89
2022/04/07 03:26:38;;;;;;;1.67;0.65;;;10.10;99.90;;;;;;5013501;28;20026;-90
2022/04/07 03:29:04;;;;;;;1.10;0.70;;;10.10;99.90;;;;;;5014866;28;20026;-86
2022/04/07 03:31:30;;;;;;;1.58;0.75;;;10.10;99.90;;;;;;5014603;28;20037;-89
2022/04/07 03:33:56;;;;;;;1.35;0.85;;;10.10;99.90;;;;;;5013493;28;20026;-89
2022/04/07 03:36:21;;;;;;;1.95;0.98;;;10.10;99.90;;;;;;5013314;28;20108;-89
2022/04/07 03:38:48;;;;;;;3.92;0.80;;;10.10;99.90;;;;;;5014489;28;20026;-89
2022/04/07 03:41:15;;;;;;;1.17;0.60;;;10.10;99.90;;;;;;5013049;28;20076;-87
2022/04/07 03:43:42;;;;;;;2.15;0.60;;;10.10;99.90;;;;;;5013181;28;20493;-88
2022/04/07 03:46:09;;;;;;;1.20;0.77;;;10.10;99.90;;;;;;5013353;28;20025;-89
2022/04/07 03:48:34;;;;;;;2.17;0.85;;;10.10;99.90;;;;;;5013185;28;20044;-88
2022/04/07 03:51:00;;;;;;;1.55;0.75;;;10.10;99.90;;;;;;5012985;28;20030;-87
2022/04/07 03:53:26;;;;;;;1.58;0.70;;;10.10;99.90;;;;;;5013987;28;20091;-89
2022/04/07 03:55:51;;;;;;;3.40;0.82;;;10.10;99.90;;;;;;5014375;28;20027;-89
2022/04/07 03:58:17;;;;;;;1.33;0.80;;;10.10;99.90;;;;;;5014126;28;20480;-89
2022/04/07 04:00:43;;;;;;;2.20;0.80;;;10.10;99.90;;;;;;5012984;28;20062;-88
2022/04/07 04:03:09;;;;;;;2.20;0.80;;;10.10;99.90;;;;;;5012971;28;20504;-88
2022/04/07 04:05:34;;;;;;;1.88;0.88;;;10.10;99.90;;;;;;5014053;28;20478;-89
2022/04/07 04:08:00;;;;;;;1.35;0.68;;;10.10;99.90;;;;;;5012998;28;20041;-88
2022/04/07 04:10:26;;;;;;;1.73;0.80;;;10.10;99.90;;;;;;5012687;28;20022;-89
2022/04/07 04:12:52;;;;;;;1.95;0.88;;;10.20;99.90;;;;;;5013997;28;20469;-89
2022/04/07 04:15:18;;;;;;;1.50;0.60;;;10.10;99.90;;;;;;5013779;28;20026;-88
2022/04/07 04:17:44;;;;;;;0.95;0.65;;;10.10;99.90;;;;;;5012560;28;20108;-88
2022/04/07 04:20:10;;;;;;;1.98;1.00;;;10.10;99.90;;;;;;5012593;28;20117;-89
2022/04/07 04:22:37;;;;;;;1.75;0.63;;;10.10;99.90;;;;;;5012546;28;20504;-89
2022/04/07 04:25:03;;;;;;;1.42;0.80;;;10.10;99.90;;;;;;5012471;28;20389;-89
2022/04/07 04:27:29;;;;;;;1.20;0.70;;;10.10;99.90;;;;;;5013728;28;20021;-87
2022/04/07 04:29:55;;;;;;;1.23;0.68;;;10.10;99.90;;;;;;5013765;28;20077;-89
2022/04/07 04:32:20;;;;;;;3.13;1.13;;;10.10;99.90;;;;;;5012396;28;20076;-88
2022/04/07 04:34:46;;;;;;;2.05;0.90;;;10.10;99.90;;;;;;5012343;28;20477;-89
2022/04/07 04:37:12;;;;;;;1.13;0.70;;;10.10;99.90;;;;;;5012297;28;20033;-86
2022/04/07 04:39:38;;;;;;;2.95;0.90;;;10.10;99.90;;;;;;5013514;28;20059;-90
2022/04/07 04:42:05;;;;;;;1.58;0.73;;;10.00;99.90;;;;;;5012479;28;20099;-90
2022/04/07 04:44:30;;;;;;;0.70;0.70;;;10.00;99.90;;;;;;5012231;28;20022;-89
2022/04/07 04:46:56;;;;;;;0.90;0.68;;;10.00;99.90;;;;;;5012335;28;20029;-89
2022/04/07 04:49:22;;;;;;;1.10;0.60;;;10.00;99.90;;;;;;5012126;28;20381;-89
2022/04/07 04:51:47;;;;;;;0.82;0.60;;;10.00;99.90;;;;;;5015176;28;20029;-89
2022/04/07 04:54:13;;;;;;;1.75;0.80;;;10.00;99.90;;;;;;5018777;28;20088;-88
2022/04/07 04:56:40;;;;;;;2.55;0.70;;;10.00;99.90;;;;;;5018779;28;20026;-88
2022/04/07 04:59:06;;;;;;;0.88;0.50;;;10.00;99.90;;;;;;5019884;28;20036;-89
2022/04/07 05:01:31;;;;;;;2.10;0.73;;;10.00;99.90;;;;;;5018708;28;20477;-90
2022/04/07 05:03:57;;;;;;;2.47;0.80;;;10.00;99.90;;;;;;5019338;28;20369;-89
2022/04/07 05:06:23;;;;;;;0.88;0.70;;;10.00;99.90;;;;;;5018913;28;20045;-87
2022/04/07 05:08:48;;;;;;;1.17;0.70;;;10.00;99.90;;;;;;5018610;28;20104;-89
2022/04/07 05:11:14;;;;;;;2.72;0.80;;;10.00;99.90;;;;;;5019953;28;20057;-89
2022/04/07 05:13:40;;;;;;;1.60;0.50;;;10.00;99.90;;;;;;5018567;28;20072;-89
2022/04/07 05:16:07;;;;;;;1.15;0.70;;;10.00;99.90;;;;;;5019108;28;20446;-86
2022/04/07 05:18:34;;;;;;;2.40;0.57;;;10.00;99.90;;;;;;5019245;28;20358;-88
2022/04/07 05:21:00;;;;;;;1.52;0.70;;;10.00;99.90;;;;;;5018515;28;20026;-88
2022/04/07 05:23:25;;;;;;;1.73;0.60;;;10.00;99.90;;;;;;5018495;28;20056;-90
2022/04/07 05:25:51;;;;;;;0.77;0.60;;;10.00;99.90;;;;;;5018525;28;20040;-88
2022/04/07 05:28:16;;;;;;;0.65;0.57;;;9.90;99.90;;;;;;5018647;28;20452;-88
2022/04/07 05:30:42;;;;;;;4.47;0.63;;;9.90;99.90;;;;;;5018689;28;20028;-92
2022/04/07 05:33:08;;;;;;;3.03;0.80;;;10.00;99.90;;;;;;5018671;28;20022;-86
2022/04/07 05:35:33;;;;;;;1.67;0.40;;;10.00;99.90;;;;;;5019987;28;20034;-90
2022/04/07 05:38:03;;;;;;;1.10;0.70;;;9.90;99.90;;;;;;5019181;28;20022;-89
2022/04/07 05:40:29;;;;;;;0.90;0.60;;;10.00;99.90;;;;;;5018843;28;20026;-90
2022/04/07 05:42:56;;;;;;;0.98;0.40;;;10.00;99.90;;;;;;5018619;28;20022;-89
2022/04/07 05:45:22;;;;;;;0.90;0.55;;;10.00;99.90;;;;;;5018956;28;20057;-91
2022/04/07 05:47:48;;;;;;;1.00;0.60;;;10.00;99.90;;;;;;5018458;28;20477;-90
2022/04/07 05:50:13;;;;;;;1.02;0.50;;;10.00;99.90;;;;;;5018479;28;20029;-91
2022/04/07 05:52:39;;;;;;;2.25;0.70;;;10.00;99.90;;;;;;5018318;28;20472;-87
2022/04/07 05:55:06;;;;;;;1.88;1.10;;;10.00;99.90;;;;;;5018667;28;20034;-86
2022/04/07 05:57:32;;;;;;;3.60;2.05;;;10.00;99.90;;;;;;5018547;28;20030;-90
2022/04/07 06:00:12;;;;;;;2.15;1.17;;;10.00;99.90;;;;;;5018387;28;20033;-89
2022/04/07 06:02:39;;;;;;;1.60;0.90;;;10.00;99.90;;;;;;5018914;28;20033;-88
2022/04/07 06:05:06;;;;;;;3.05;0.80;;;10.00;99.90;;;;;;5015210;28;20037;-90
2022/04/07 06:07:32;;;;;;;2.40;1.00;;;10.00;99.90;;;;;;5015132;28;20485;-90
2022/04/07 06:09:57;;;;;;;1.45;0.80;;;10.00;99.90;;;;;;5015098;28;20022;-89
2022/04/07 06:12:23;;;;;;;3.78;0.77;;;10.00;99.90;;;;;;5014819;28;20068;-87
2022/04/07 06:14:49;;;;;;;2.63;0.85;;;10.10;99.90;;;;;;5016483;28;20028;-89
2022/04/07 06:17:14;;;;;;;1.98;0.70;;;10.10;99.90;;;;;;5014823;28;20108;-89
2022/04/07 06:19:40;;;;;;;3.08;0.73;;;10.00;99.90;;;;;;5015947;28;20038;-88
2022/04/07 06:22:07;;;;;;;2.72;0.88;;;10.10;99.90;;;;;;5016361;28;20065;-83
2022/04/07 06:24:34;;;;;;;4.63;0.88;;;10.10;99.90;;;;;;5014653;28;20022;-91
2022/04/07 06:27:00;;;;;;;1.00;0.60;;;10.00;99.90;;;;;;5014695;28;20025;-87
2022/04/07 06:29:26;;;;;;;3.42;0.60;;;10.00;99.90;;;;;;5014788;28;20021;-85
2022/04/07 06:31:52;;;;;;;0.60;0.60;;;10.00;99.90;;;;;;5015694;28;20022;-89
2022/04/07 06:34:18;;;;;;;2.08;0.73;;;10.00;99.90;;;;;;5015711;28;20114;-88
2022/04/07 06:36:43;;;;;;;1.98;0.70;;;10.00;99.90;;;;;;5014650;28;20058;-83
2022/04/07 06:39:09;;;;;;;7.43;0.73;;;10.00;99.90;;;;;;5015507;28;20084;-91
2022/04/07 06:41:35;;;;;;;2.60;0.93;;;10.00;99.90;;;;;;5014371;28;20109;-85
2022/04/07 06:44:00;;;;;;;2.17;0.80;;;10.00;99.90;;;;;;5015466;28;20462;-86
2022/04/07 06:46:26;;;;;;;2.28;0.57;;;10.00;99.90;;;;;;5016029;28;20477;-92
2022/04/07 06:48:52;;;;;;;1.20;0.50;;;10.00;99.90;;;;;;5015482;28;20026;-92
2022/04/07 06:51:20;;;;;;;1.55;0.47;;;10.00;99.90;;;;;;5014201;28;20022;-84
2022/04/07 06:53:46;;;;;;;1.13;0.60;;;10.00;99.90;;;;;;5013880;28;20050;-88
2022/04/07 06:56:11;;;;;;;3.45;0.60;;;10.00;99.90;;;;;;5015278;28;20442;-88
2022/04/07 06:58:37;;;;;;;2.35;0.50;;;10.00;99.90;;;;;;5014062;28;20124;-88
2022/04/07 07:01:02;;;;;;;1.55;0.68;;;10.00;99.90;;;;;;5015072;28;20447;-88
2022/04/07 07:03:28;;;;;;;3.83;0.70;;;10.00;99.90;;;;;;5015045;28;20030;-82
2022/04/07 07:05:58;;;;;;;0.60;0.40;;;10.00;99.90;;;;;;5013598;28;20061;-87
2022/04/07 07:08:24;;;;;;;2.88;0.50;;;10.00;99.90;;;;;;5013674;28;20052;-83
2022/04/07 07:10:51;;;;;;;0.73;0.45;;;10.00;99.90;;;;;;5013587;28;20030;-87
2022/04/07 07:13:21;;;;;;;0.40;0.40;;;10.10;99.90;;;;;;5013585;28;20433;-87
2022/04/07 07:15:48;;;;;;;1.60;0.70;;;10.20;99.90;;;;;;5014381;28;20022;-87
2022/04/07 07:18:14;;;;;;;0.75;0.50;;;10.20;99.90;;;;;;5014912;28;20057;-88
2022/04/07 07:20:40;;;;;;;0.57;0.50;;;10.20;99.90;;;;;;5014704;28;20030;-87
2022/04/07 07:23:07;;;;;;;2.15;0.50;;;10.30;99.90;;;;;;5013451;28;20084;-88
2022/04/07 07:25:36;;;;;;;0.50;0.40;;;10.30;99.90;;;;;;5013280;28;20026;-86
2022/04/07 07:28:03;;;;;;;0.82;0.40;;;10.30;99.90;;;;;;5013420;28;20397;-87
2022/04/07 07:30:29;;;;;;;0.60;0.40;;;10.40;99.90;;;;;;5013307;28;20100;-90
2022/04/07 07:32:56;;;;;;;1.77;0.70;;;10.40;99.90;;;;;;5015135;28;20030;-88
2022/04/07 07:35:23;;;;;;;0.95;0.50;;;10.40;99.90;;;;;;5013461;28;20037;-89
2022/04/07 07:37:49;;;;;;;4.22;0.68;;;10.50;99.90;;;;;;5014552;28;20033;-84
2022/04/07 07:40:15;;;;;;;1.65;0.70;;;10.50;99.90;;;;;;5013518;28;20041;-84
2022/04/07 07:42:42;;;;;;;1.75;0.52;;;10.40;99.90;;;;;;5014880;28;20417;-86
2022/04/07 07:45:08;;;;;;;3.38;0.50;;;10.40;99.90;;;;;;5013054;28;20034;-83
2022/04/07 07:47:35;;;;;;;1.63;0.55;;;10.40;99.90;;;;;;5013637;28;20046;-89
2022/04/07 07:50:02;;;;;;;2.03;0.50;;;10.40;99.90;;;;;;5014263;28;20029;-83
2022/04/07 07:52:28;;;;;;;1.20;0.40;;;10.40;99.90;;;;;;5012729;28;20026;-88
2022/04/07 07:54:53;;;;;;;1.58;0.45;;;10.40;99.90;;;;;;5012948;28;20374;-86
2022/04/07 07:57:20;;;;;;;1.05;0.50;;;10.40;99.90;;;;;;5014161;28;20037;-87
2022/04/07 07:59:45;;;;;;;0.85;0.50;;;10.40;99.90;;;;;;5014368;28;20128;-81
2022/04/07 08:02:12;;;;;;;1.25;0.65;;;10.40;99.90;;;;;;5012721;28;20110;-83
2022/04/07 08:04:37;;;;;;;1.80;0.60;;;10.40;99.90;;;;;;5012675;28;20057;-88
2022/04/07 08:07:04;;;;;;;1.10;0.50;;;10.40;99.90;;;;;;5012861;28;20029;-88
2022/04/07 08:09:32;;;;;;;2.10;0.60;;;10.50;99.90;;;;;;5012670;28;20022;-87
2022/04/07 08:11:58;;;;;;;2.85;0.60;;;10.50;99.90;;;;;;5014131;28;20457;-88
2022/04/07 08:14:23;;;;;;;4.00;0.77;;;10.60;99.90;;;;;;5013432;28;20034;-88
2022/04/07 08:16:52;;;;;;;1.35;0.38;;;10.60;99.90;;;;;;5012639;28;20144;-87
2022/04/07 08:19:18;;;;;;;5.47;0.75;;;10.60;99.90;;;;;;5012694;28;20029;-90
2022/04/07 08:21:43;;;;;;;6.82;0.85;;;10.60;99.90;;;;;;5012484;28;20030;-82
2022/04/07 08:24:09;;;;;;;1.55;0.47;;;10.60;99.90;;;;;;5013569;28;20105;-85
2022/04/07 08:26:34;;;;;;;6.05;0.60;;;10.60;99.90;;;;;;5012916;28;20092;-87
2022/04/07 08:29:00;;;;;;;3.17;1.20;;;10.60;99.90;;;;;;5012335;28;20033;-83
2022/04/07 08:31:26;;;;;;;1.95;0.60;;;10.60;99.90;;;;;;5013813;28;20106;-83
2022/04/07 08:33:52;;;;;;;0.80;0.43;;;10.60;99.90;;;;;;5013774;28;20076;-84
2022/04/07 08:36:17;;;;;;;3.95;0.47;;;10.60;99.90;;;;;;5012185;28;20030;-82
2022/04/07 08:38:43;;;;;;;2.65;0.52;;;10.60;99.90;;;;;;5013541;28;20080;-87
2022/04/07 08:41:11;;;;;;;3.30;0.63;;;10.70;99.90;;;;;;5013762;28;20028;-82
2022/04/07 08:43:39;;;;;;;0.57;0.30;;;10.80;99.90;;;;;;5012124;28;20032;-85
2022/04/07 08:46:11;;;;;;;1.25;0.32;;;10.90;99.90;;;;;;5012031;28;20022;-85
2022/04/07 08:48:40;;;;;;;3.75;0.75;;;11.00;99.90;;;;;;5012192;28;20030;-81
2022/04/07 08:51:06;;;;;;;3.50;0.40;;;11.00;99.90;;;;;;5011986;28;20088;-86
2022/04/07 08:53:33;;;;;;;1.45;0.50;;;11.00;99.90;;;;;;5013316;28;20511;-83
2022/04/07 08:56:03;;;;;;;1.02;0.40;;;11.00;99.90;;;;;;5012762;28;20385;-83
2022/04/07 08:58:29;;;;;;;2.88;0.30;;;10.90;99.90;;;;;;5012531;28;20034;-81
2022/04/07 09:00:55;;;;;;;1.35;0.50;;;10.90;99.90;;;;;;5013547;28;20041;-84
2022/04/07 09:03:21;;;;;;;0.30;0.20;;;10.80;99.90;;;;;;5013184;28;20030;-84
2022/04/07 09:05:58;;;;;;;1.75;0.47;;;10.80;99.90;;;;;;5012126;28;20077;-90
2022/04/07 09:08:35;;;;;;;0.80;0.25;;;10.80;99.90;;;;;;5013278;28;20022;-89
2022/04/07 09:11:02;;;;;;;1.25;0.50;;;10.80;99.90;;;;;;5011989;28;20072;-82
2022/04/07 09:13:34;;;;;;;2.00;0.50;;;10.80;99.90;;;;;;5011856;28;20018;-85
2022/04/07 09:16:07;;;;;;;1.15;0.40;;;10.80;99.90;;;;;;5012022;28;20030;-85
2022/04/07 09:18:38;;;;;;;2.22;0.52;;;10.80;99.90;;;;;;5011868;28;20168;-82
2022/04/07 09:21:05;;;;;;;0.45;0.30;;;10.80;99.90;;;;;;5011834;28;20123;-86
2022/04/07 09:23:41;;;;;;;7.43;0.38;;;10.80;99.90;;;;;;5011773;28;20038;-84
2022/04/07 09:26:14;;;;;;;4.65;0.60;;;10.80;99.90;;;;;;5011691;28;20058;-90
2022/04/07 09:28:39;;;;;;;1.83;0.40;;;10.80;99.90;;;;;;5011860;28;20039;-84
2022/04/07 09:31:10;;;;;;;1.23;0.30;;;10.70;99.90;;;;;;5011822;28;20045;-82
2022/04/07 09:33:36;;;;;;;1.55;0.50;;;10.70;99.90;;;;;;5011828;28;20393;-89
2022/04/07 09:36:20;;;;;;;4.07;0.50;;;10.60;99.90;;;;;;5011674;28;20030;-82
2022/04/07 09:38:52;;;;;;;2.42;0.43;;;10.60;99.90;;;;;;5014856;28;20026;-86
2022/04/07 09:41:19;;;;;;;1.08;0.40;;;10.70;99.90;;;;;;5015439;28;20379;-83
2022/04/07 09:43:53;;;;;;;2.05;0.47;;;10.60;99.90;;;;;;5015259;28;20057;-83
2022/04/07 09:46:20;;;;;;;1.02;0.40;;;10.60;99.90;;;;;;5016764;28;20026;-84
2022/04/07 09:49:11;;;;;;;0.90;0.50;;;10.70;99.90;;;;;;5015203;28;20033;-88
2022/04/07 09:51:40;;;;;;;4.80;0.40;;;10.60;99.90;;;;;;5015073;28;20029;-86
2022/04/07 09:54:09;;;;;;;3.90;0.57;;;10.70;99.90;;;;;;5016098;28;20120;-81
2022/04/07 09:56:36;;;;;;;1.83;0.47;;;10.80;99.90;;;;;;5015035;28;20030;-82
2022/04/07 09:59:07;;;;;;;0.85;0.38;;;10.80;99.90;;;;;;5015071;28;20041;-87
2022/04/07 10:01:34;;;;;;;1.17;0.30;;;10.80;99.90;;;;;;5015096;28;20108;-84
2022/04/07 10:04:02;;;;;;;0.65;0.40;;;10.90;99.90;;;;;;5014907;28;20111;-88
2022/04/07 10:06:30;;;;;;;0.50;0.30;;;10.90;99.90;;;;;;5016190;28;20068;-86
2022/04/07 10:08:58;;;;;;;1.00;0.30;;;10.80;99.90;;;;;;5016111;28;20469;-89
2022/04/07 10:11:24;;;;;;;0.73;0.30;;;10.80;99.90;;;;;;5016277;28;20014;-84
2022/04/07 10:13:51;;;;;;;0.43;0.20;;;10.90;99.90;;;;;;5014862;28;20076;-82
2022/04/07 10:16:17;;;;;;;1.45;0.32;;;10.90;99.90;;;;;;5016037;28;20393;-82
2022/04/07 10:18:49;;;;;;;2.50;0.30;;;11.00;99.90;;;;;;5016072;28;20022;-90
2022/04/07 10:21:55;;;;;;;2.42;0.50;;;10.90;99.90;;;;;;5014729;28;20481;-87
2022/04/07 10:24:30;;;;;;;0.70;0.30;;;10.90;99.90;;;;;;4978747;28;20034;-80
2022/04/07 10:26:58;;;;;;;6.97;0.60;;;11.00;99.90;;;;;;5014523;28;20026;-81
2022/04/07 10:29:24;;;;;;;2.03;0.30;;;11.00;99.90;;;;;;5014589;28;20022;-86
2022/04/07 10:32:12;;;;;;;1.10;0.20;;;11.00;99.90;;;;;;5014651;28;20032;-84
2022/04/07 10:34:59;;;;;;;0.70;0.30;;;11.00;99.90;;;;;;5014463;28;20544;-85
2022/04/07 10:37:39;;;;;;;1.83;0.35;;;11.10;99.90;;;;;;5015679;28;20100;-89
2022/04/07 10:40:39;;;;;;;2.95;0.60;;;11.10;99.90;;;;;;5014608;28;20026;-82
2022/04/07 10:43:13;;;;;;;1.13;0.30;;;11.10;99.90;;;;;;5014713;28;20050;-87
2022/04/07 10:45:42;;;;;;;;;;;11.10;99.90;;;;;;5015851;28;20428;-82
2022/04/07 10:48:29;;;;;;;2.55;0.55;;;11.10;99.90;;;;;;5015370;28;19948;-86
2022/04/07 10:51:00;;;;;;;1.33;0.38;;;11.10;99.90;;;;;;5013256;28;20053;-86
2022/04/07 10:53:33;;;;;;;2.42;0.25;;;11.10;99.90;;;;;;5013693;28;20132;-86
2022/04/07 10:56:07;;;;;;;2.33;0.52;;;11.10;99.90;;;;;;5015537;28;20034;-86
2022/04/07 10:58:44;;;;;;;1.48;0.32;;;11.10;99.90;;;;;;5014767;28;20056;-85
2022/04/07 11:01:32;;;;;;;3.03;0.20;;;11.10;99.90;;;;;;5011238;28;20037;-85
2022/04/07 11:04:16;;;;;;;1.75;0.28;;;11.10;99.90;;;;;;5013863;28;20030;-86
2022/04/07 11:07:16;;;;;;;1.63;0.38;;;11.00;99.90;;;;;;5015053;28;20026;-85
2022/04/07 11:09:48;;;;;;;2.85;0.30;;;11.00;99.90;;;;;;5013697;28;20504;-81
2022/04/07 11:12:19;;;;;;;2.95;0.30;;;11.00;99.90;;;;;;5013651;28;20365;-83
2022/04/07 11:14:47;;;;;;;0.57;0.30;;;11.10;99.90;;;;;;5013591;28;20021;-87
2022/04/07 11:17:22;;;;;;;1.15;0.20;;;11.10;99.90;;;;;;5013702;28;20474;-87
2022/04/07 11:20:15;;;;;;;1.27;0.32;;;11.10;99.90;;;;;;5014861;28;20478;-83
2022/04/07 11:23:13;;;;;;;0.60;0.20;;;11.20;99.90;;;;;;5013367;28;20037;-82
2022/04/07 11:25:41;;;;;;;0.20;0.20;;;11.20;99.90;;;;;;5014840;28;20048;-87
2022/04/07 11:28:20;;;;;;;0.55;0.20;;;11.30;99.90;;;;;;5013332;28;20021;-84
2022/04/07 11:30:54;;;;;;;0.50;0.17;;;11.40;99.90;;;;;;5013283;28;20022;-84
2022/04/07 11:33:28;;;;;;;0.60;0.30;;;11.40;99.90;;;;;;5013342;28;20032;-82
2022/04/07 11:36:00;;;;;;;2.15;0.40;;;11.40;99.90;;;;;;5013240;28;20030;-81
2022/04/07 11:38:46;;;;;;;0.40;0.15;;;11.40;99.90;;;;;;5014311;28;20026;-80
2022/04/07 11:41:18;;;;;;;2.28;0.30;;;11.60;99.90;;;;;;5014338;28;20076;-84
2022/04/07 11:43:47;;;;;;;2.00;0.40;;;11.60;99.90;;;;;;5012959;28;20036;-83
2022/04/07 11:46:31;;;;;;;2.88;0.30;;;11.50;99.90;;;;;;5012809;28;20076;-82
2022/04/07 11:48:58;;;;;;;1.15;0.20;;;11.40;99.90;;;;;;5012787;28;20092;-83
2022/04/07 11:51:25;;;;;;;0.35;0.20;;;11.40;99.90;;;;;;5012697;28;20021;-84
2022/04/07 11:53:53;;;;;;;4.50;0.45;;;11.40;99.90;;;;;;5012464;28;20545;-82
2022/04/07 11:56:21;;;;;;;1.38;0.20;;;11.40;99.90;;;;;;5012724;28;20026;-83
2022/04/07 11:59:07;;;;;;;4.93;0.40;;;11.40;99.90;;;;;;5012715;28;20029;-82
2022/04/07 12:01:35;;;;;;;0.60;0.10;;;11.40;99.90;;;;;;5013866;28;20029;-83
2022/04/07 12:04:03;;;;;;;1.55;0.30;;;11.40;99.90;;;;;;5013807;28;20076;-81
2022/04/07 12:06:30;;;;;;;0.57;0.30;;;11.30;99.90;;;;;;5012888;28;20484;-85
2022/04/07 12:08:57;;;;;;;0.38;0.20;;;11.30;99.90;;;;;;5012573;28;20029;-86
2022/04/07 12:11:25;;;;;;;0.45;0.20;;;11.30;99.90;;;;;;5012492;28;20029;-80
2022/04/07 12:13:53;;;;;;;1.92;0.20;;;11.30;99.90;;;;;;5014002;28;20018;-81
2022/04/07 12:16:21;;;;;;;0.90;0.30;;;11.30;99.90;;;;;;5012396;28;20461;-84
2022/04/07 12:18:57;;;;;;;0.35;0.10;;;11.30;99.90;;;;;;5012382;28;20026;-84
2022/04/07 12:21:23;;;;;;;0.40;0.20;;;11.30;99.90;;;;;;5012271;28;20109;-81
2022/04/07 12:24:13;;;;;;;0.57;0.20;;;11.40;99.90;;;;;;5012259;28;20026;-80
2022/04/07 12:26:43;;;;;;;0.25;0.20;;;11.40;99.90;;;;;;5012294;28;20511;-83
2022/04/07 12:29:19;;;;;;;0.63;0.20;;;11.40;99.90;;;;;;5012189;28;20025;-85
2022/04/07 12:31:45;;;;;;;0.20;0.20;;;11.50;99.90;;;;;;5012204;28;20033;-81
2022/04/07 12:34:17;;;;;;;0.10;0.10;;;11.50;99.90;;;;;;5012140;28;20022;-84
2022/04/07 12:36:43;;;;;;;2.00;0.13;;;11.50;99.90;;;;;;5012138;28;20030;-86
2022/04/07 12:39:15;;;;;;;0.75;0.30;;;11.60;99.90;;;;;;5012076;28;20385;-80
2022/04/07 12:41:43;;;;;;;2.40;0.30;;;11.50;99.90;;;;;;5012112;28;20018;-84
2022/04/07 12:44:10;;;;;;;1.65;0.20;;;11.50;99.90;;;;;;5011953;28;20018;-88
2022/04/07 12:46:50;;;;;;;2.35;0.30;;;11.50;99.90;;;;;;5012060;28;20482;-81
2022/04/07 12:49:39;;;;;;;0.40;0.10;;;11.50;99.90;;;;;;5011988;28;20485;-81
2022/04/07 12:52:14;;;;;;;2.35;0.30;;;11.50;99.90;;;;;;5011972;28;20022;-84
2022/04/07 12:54:58;;;;;;;0.43;0.10;;;11.50;99.90;;;;;;5011774;28;20488;-82